sensor_id;sensor_type;location;lat;lon;timestamp;temperature;humidity
11132;DHT22;5620;53.570;9.718;2022-08-02T00:02:09;12.40;99.90
11132;DHT22;5620;53.570;9.718;2022-08-02T00:04:37;12.30;99.90
11132;DHT22;5620;53.570;9.718;2022-08-02T00:07:04;12.30;99.90
11132;DHT22;5620;53.570;9.718;2022-08-02T00:09:32;12.30;1.00
11132;DHT22;5620;53.570;9.718;2022-08-02T00:11:59;12.30;1.00
11132;DHT22;5620;53.570;9.718;2022-08-02T00:14:27;12.30;1.00
11132;DHT22;5620;53.570;9.718;2022-08-02T00:16:55;12.30;1.00
11132;DHT22;5620;53.570;9.718;2022-08-02T00:19:21;12.20;1.00
11132;DHT22;5620;53.570;9.718;2022-08-02T00:21:49;12.30;1.00
11132;DHT22;5620;53.570;9.718;2022-08-02T00:24:15;12.20;1.00
11132;DHT22;5620;53.570;9.718;2022-08-02T00:26:42;12.20;1.00
11132;DHT22;5620;53.570;9.718;2022-08-02T00:29:09;12.10;1.00
11132;DHT22;5620;53.570;9.718;2022-08-02T00:31:36;12.10;6.70
11132;DHT22;5620;53.570;9.718;2022-08-02T00:34:03;12.10;65.30
11132;DHT22;5620;53.570;9.718;2022-08-02T00:36:30;12.10;99.10
11132;DHT22;5620;53.570;9.718;2022-08-02T00:38:57;12.10;99.90
11132;DHT22;5620;53.570;9.718;2022-08-02T00:41:26;12.00;99.90
11132;DHT22;5620;53.570;9.718;2022-08-02T00:43:51;12.00;99.90
11132;DHT22;5620;53.570;9.718;2022-08-02T00:46:19;12.00;99.90
11132;DHT22;5620;53.570;9.718;2022-08-02T00:48:46;12.00;99.90
11132;DHT22;5620;53.570;9.718;2022-08-02T00:51:14;12.00;99.90
11132;DHT22;5620;53.570;9.718;2022-08-02T00:53:42;12.00;1.00
11132;DHT22;5620;53.570;9.718;2022-08-02T00:56:09;12.00;1.00
11132;DHT22;5620;53.570;9.718;2022-08-02T00:58:35;12.00;1.00
11132;DHT22;5620;53.570;9.718;2022-08-02T01:01:02;12.00;27.40
11132;DHT22;5620;53.570;9.718;2022-08-02T01:03:29;12.10;96.40
11132;DHT22;5620;53.570;9.718;2022-08-02T01:05:57;12.20;99.90
11132;DHT22;5620;53.570;9.718;2022-08-02T01:08:25;12.20;99.90
11132;DHT22;5620;53.570;9.718;2022-08-02T01:10:52;12.30;99.90
11132;DHT22;5620;53.570;9.718;2022-08-02T01:13:19;12.30;1.00
11132;DHT22;5620;53.570;9.718;2022-08-02T01:15:57;12.30;1.00
11132;DHT22;5620;53.570;9.718;2022-08-02T01:18:40;12.30;1.00
11132;DHT22;5620;53.570;9.718;2022-08-02T01:21:47;12.40;5.90
11132;DHT22;5620;53.570;9.718;2022-08-02T01:30:12;12.30;15.40
11132;DHT22;5620;53.570;9.718;2022-08-02T01:32:44;12.20;1.00
11132;DHT22;5620;53.570;9.718;2022-08-02T01:35:16;12.10;58.20
11132;DHT22;5620;53.570;9.718;2022-08-02T01:38:03;12.10;98.00
11132;DHT22;5620;53.570;9.718;2022-08-02T01:40:35;12.00;99.90
11132;DHT22;5620;53.570;9.718;2022-08-02T01:43:13;11.90;99.90
11132;DHT22;5620;53.570;9.718;2022-08-02T01:45:41;11.90;99.90
11132;DHT22;5620;53.570;9.718;2022-08-02T01:48:13;11.90;99.90
11132;DHT22;5620;53.570;9.718;2022-08-02T01:50:43;11.80;99.90
11132;DHT22;5620;53.570;9.718;2022-08-02T01:53:13;11.80;1.00
11132;DHT22;5620;53.570;9.718;2022-08-02T01:55:47;11.70;1.00
11132;DHT22;5620;53.570;9.718;2022-08-02T01:58:18;11.70;1.00
11132;DHT22;5620;53.570;9.718;2022-08-02T02:00:47;11.70;1.00
11132;DHT22;5620;53.570;9.718;2022-08-02T02:03:19;11.70;1.00
11132;DHT22;5620;53.570;9.718;2022-08-02T02:05:48;11.60;1.00
11132;DHT22;5620;53.570;9.718;2022-08-02T02:08:19;11.60;22.60
11132;DHT22;5620;53.570;9.718;2022-08-02T02:10:48;11.60;83.50
11132;DHT22;5620;53.570;9.718;2022-08-02T02:13:17;11.60;83.60
11132;DHT22;5620;53.570;9.718;2022-08-02T02:15:50;11.50;99.90
11132;DHT22;5620;53.570;9.718;2022-08-02T02:18:27;11.50;99.90
11132;DHT22;5620;53.570;9.718;2022-08-02T02:20:53;11.40;99.90
11132;DHT22;5620;53.570;9.718;2022-08-02T02:23:22;11.40;99.90
11132;DHT22;5620;53.570;9.718;2022-08-02T02:25:48;11.30;99.90
11132;DHT22;5620;53.570;9.718;2022-08-02T02:28:33;11.30;99.90
11132;DHT22;5620;53.570;9.718;2022-08-02T02:31:17;11.30;99.90
11132;DHT22;5620;53.570;9.718;2022-08-02T02:33:49;11.20;99.90
11132;DHT22;5620;53.570;9.718;2022-08-02T02:36:18;11.20;99.90
11132;DHT22;5620;53.570;9.718;2022-08-02T02:38:47;11.20;99.90
11132;DHT22;5620;53.570;9.718;2022-08-02T02:41:15;11.20;1.00
11132;DHT22;5620;53.570;9.718;2022-08-02T02:43:44;11.20;1.00
11132;DHT22;5620;53.570;9.718;2022-08-02T02:46:12;11.20;1.00
11132;DHT22;5620;53.570;9.718;2022-08-02T02:48:41;11.20;1.00
11132;DHT22;5620;53.570;9.718;2022-08-02T02:51:12;11.20;1.00
11132;DHT22;5620;53.570;9.718;2022-08-02T02:53:43;11.20;1.00
11132;DHT22;5620;53.570;9.718;2022-08-02T02:56:15;11.20;1.00
11132;DHT22;5620;53.570;9.718;2022-08-02T02:58:44;11.20;1.00
11132;DHT22;5620;53.570;9.718;2022-08-02T03:01:14;11.20;1.00
11132;DHT22;5620;53.570;9.718;2022-08-02T03:03:47;11.20;1.00
11132;DHT22;5620;53.570;9.718;2022-08-02T03:06:13;11.20;1.00
11132;DHT22;5620;53.570;9.718;2022-08-02T03:08:42;11.20;1.00
11132;DHT22;5620;53.570;9.718;2022-08-02T03:11:09;11.30;1.00
11132;DHT22;5620;53.570;9.718;2022-08-02T03:13:39;11.40;1.00
11132;DHT22;5620;53.570;9.718;2022-08-02T03:16:05;11.40;1.00
11132;DHT22;5620;53.570;9.718;2022-08-02T03:18:33;11.40;1.00
11132;DHT22;5620;53.570;9.718;2022-08-02T03:21:06;11.50;1.00
11132;DHT22;5620;53.570;9.718;2022-08-02T03:23:39;11.50;1.00
11132;DHT22;5620;53.570;9.718;2022-08-02T03:26:05;11.50;1.00
11132;DHT22;5620;53.570;9.718;2022-08-02T03:28:31;11.60;1.00
11132;DHT22;5620;53.570;9.718;2022-08-02T03:30:58;11.60;1.00
11132;DHT22;5620;53.570;9.718;2022-08-02T03:33:25;11.70;5.60
11132;DHT22;5620;53.570;9.718;2022-08-02T03:35:56;11.80;6.10
11132;DHT22;5620;53.570;9.718;2022-08-02T03:38:25;11.80;18.10
11132;DHT22;5620;53.570;9.718;2022-08-02T03:40:52;11.90;27.30
11132;DHT22;5620;53.570;9.718;2022-08-02T03:43:19;11.90;20.30
11132;DHT22;5620;53.570;9.718;2022-08-02T03:45:47;11.90;63.10
11132;DHT22;5620;53.570;9.718;2022-08-02T03:48:16;12.00;88.40
11132;DHT22;5620;53.570;9.718;2022-08-02T03:50:51;12.00;96.80
11132;DHT22;5620;53.570;9.718;2022-08-02T03:53:29;12.00;99.90
11132;DHT22;5620;53.570;9.718;2022-08-02T03:55:56;12.00;99.90
11132;DHT22;5620;53.570;9.718;2022-08-02T03:58:25;12.00;99.90
11132;DHT22;5620;53.570;9.718;2022-08-02T04:00:55;12.00;99.90
11132;DHT22;5620;53.570;9.718;2022-08-02T04:03:22;11.90;99.90
11132;DHT22;5620;53.570;9.718;2022-08-02T04:05:51;11.90;99.90
11132;DHT22;5620;53.570;9.718;2022-08-02T04:08:19;11.80;99.90
11132;DHT22;5620;53.570;9.718;2022-08-02T04:10:47;11.80;99.90
11132;DHT22;5620;53.570;9.718;2022-08-02T04:13:15;11.70;99.90
11132;DHT22;5620;53.570;9.718;2022-08-02T04:15:43;11.70;99.90
11132;DHT22;5620;53.570;9.718;2022-08-02T04:18:10;11.70;1.00
11132;DHT22;5620;53.570;9.718;2022-08-02T04:20:41;11.70;1.00
11132;DHT22;5620;53.570;9.718;2022-08-02T04:23:16;11.60;1.00
11132;DHT22;5620;53.570;9.718;2022-08-02T04:25:45;11.60;1.00
11132;DHT22;5620;53.570;9.718;2022-08-02T04:28:19;11.60;1.00
11132;DHT22;5620;53.570;9.718;2022-08-02T04:30:51;11.60;1.00
11132;DHT22;5620;53.570;9.718;2022-08-02T04:33:19;11.60;1.00
11132;DHT22;5620;53.570;9.718;2022-08-02T04:35:47;11.60;1.00
11132;DHT22;5620;53.570;9.718;2022-08-02T04:38:14;11.60;1.00
11132;DHT22;5620;53.570;9.718;2022-08-02T04:40:53;11.60;1.00
11132;DHT22;5620;53.570;9.718;2022-08-02T04:43:21;11.60;1.00
11132;DHT22;5620;53.570;9.718;2022-08-02T04:45:53;11.70;1.00
11132;DHT22;5620;53.570;9.718;2022-08-02T04:48:21;11.70;1.00
11132;DHT22;5620;53.570;9.718;2022-08-02T04:50:48;11.70;1.00
11132;DHT22;5620;53.570;9.718;2022-08-02T04:53:18;11.80;1.00
11132;DHT22;5620;53.570;9.718;2022-08-02T04:55:49;11.80;1.00
11132;DHT22;5620;53.570;9.718;2022-08-02T04:58:16;11.90;1.00
11132;DHT22;5620;53.570;9.718;2022-08-02T05:00:44;12.10;1.00
11132;DHT22;5620;53.570;9.718;2022-08-02T05:03:10;12.30;99.90
11132;DHT22;5620;53.570;9.718;2022-08-02T05:05:37;12.50;91.80
11132;DHT22;5620;53.570;9.718;2022-08-02T05:08:04;12.70;1.00
11132;DHT22;5620;53.570;9.718;2022-08-02T05:10:32;12.90;1.00
11132;DHT22;5620;53.570;9.718;2022-08-02T05:13:02;13.00;99.90
11132;DHT22;5620;53.570;9.718;2022-08-02T05:15:29;13.20;99.90
11132;DHT22;5620;53.570;9.718;2022-08-02T05:17:56;13.30;1.00
11132;DHT22;5620;53.570;9.718;2022-08-02T05:20:23;13.40;1.00
11132;DHT22;5620;53.570;9.718;2022-08-02T05:22:50;13.60;1.00
11132;DHT22;5620;53.570;9.718;2022-08-02T05:25:15;13.80;99.90
11132;DHT22;5620;53.570;9.718;2022-08-02T05:27:42;13.80;1.00
11132;DHT22;5620;53.570;9.718;2022-08-02T05:30:11;13.90;1.00
11132;DHT22;5620;53.570;9.718;2022-08-02T05:32:48;14.00;1.00
11132;DHT22;5620;53.570;9.718;2022-08-02T05:35:22;14.10;1.00
11132;DHT22;5620;53.570;9.718;2022-08-02T05:37:51;14.20;99.90
11132;DHT22;5620;53.570;9.718;2022-08-02T05:40:20;14.20;99.90
11132;DHT22;5620;53.570;9.718;2022-08-02T05:42:47;14.30;99.90
11132;DHT22;5620;53.570;9.718;2022-08-02T05:45:15;14.40;68.80
11132;DHT22;5620;53.570;9.718;2022-08-02T05:47:41;14.60;1.00
11132;DHT22;5620;53.570;9.718;2022-08-02T05:50:07;15.10;1.00
11132;DHT22;5620;53.570;9.718;2022-08-02T05:52:44;16.20;1.00
11132;DHT22;5620;53.570;9.718;2022-08-02T05:55:27;16.70;1.00
11132;DHT22;5620;53.570;9.718;2022-08-02T06:01:02;16.10;1.00
11132;DHT22;5620;53.570;9.718;2022-08-02T06:03:43;15.80;1.00
11132;DHT22;5620;53.570;9.718;2022-08-02T06:06:16;15.60;99.90
11132;DHT22;5620;53.570;9.718;2022-08-02T06:08:46;15.60;99.90
11132;DHT22;5620;53.570;9.718;2022-08-02T06:11:17;15.50;99.90
11132;DHT22;5620;53.570;9.718;2022-08-02T06:13:47;15.60;99.90
11132;DHT22;5620;53.570;9.718;2022-08-02T06:16:15;15.60;99.90
11132;DHT22;5620;53.570;9.718;2022-08-02T06:18:43;15.60;99.90
11132;DHT22;5620;53.570;9.718;2022-08-02T06:21:13;15.70;99.90
11132;DHT22;5620;53.570;9.718;2022-08-02T06:23:43;15.80;99.90
11132;DHT22;5620;53.570;9.718;2022-08-02T06:26:12;15.80;99.90
11132;DHT22;5620;53.570;9.718;2022-08-02T06:28:40;15.80;93.20
11132;DHT22;5620;53.570;9.718;2022-08-02T06:31:06;15.90;77.60
11132;DHT22;5620;53.570;9.718;2022-08-02T06:33:35;15.90;1.00
11132;DHT22;5620;53.570;9.718;2022-08-02T06:38:43;16.00;1.00
11132;DHT22;5620;53.570;9.718;2022-08-02T06:41:14;16.10;1.00
11132;DHT22;5620;53.570;9.718;2022-08-02T06:43:49;16.20;99.90
11132;DHT22;5620;53.570;9.718;2022-08-02T06:46:20;16.20;99.90
11132;DHT22;5620;53.570;9.718;2022-08-02T06:48:48;16.20;99.90
11132;DHT22;5620;53.570;9.718;2022-08-02T06:51:14;16.30;99.90
11132;DHT22;5620;53.570;9.718;2022-08-02T06:53:41;16.40;99.90
11132;DHT22;5620;53.570;9.718;2022-08-02T06:56:09;16.40;71.40
11132;DHT22;5620;53.570;9.718;2022-08-02T06:58:36;16.40;57.40
11132;DHT22;5620;53.570;9.718;2022-08-02T07:01:04;16.50;26.70
11132;DHT22;5620;53.570;9.718;2022-08-02T07:03:32;16.60;1.00
11132;DHT22;5620;53.570;9.718;2022-08-02T07:06:00;16.80;1.00
11132;DHT22;5620;53.570;9.718;2022-08-02T07:08:28;16.90;1.00
11132;DHT22;5620;53.570;9.718;2022-08-02T07:10:55;16.90;1.00
11132;DHT22;5620;53.570;9.718;2022-08-02T07:13:23;17.00;1.00
11132;DHT22;5620;53.570;9.718;2022-08-02T07:15:51;17.10;1.00
11132;DHT22;5620;53.570;9.718;2022-08-02T07:18:17;17.20;99.90
11132;DHT22;5620;53.570;9.718;2022-08-02T07:20:43;17.30;99.90
11132;DHT22;5620;53.570;9.718;2022-08-02T07:23:09;17.30;99.90
11132;DHT22;5620;53.570;9.718;2022-08-02T07:25:38;17.40;99.90
11132;DHT22;5620;53.570;9.718;2022-08-02T07:28:09;17.40;99.90
11132;DHT22;5620;53.570;9.718;2022-08-02T07:30:37;17.50;99.90
11132;DHT22;5620;53.570;9.718;2022-08-02T07:33:05;17.60;91.90
11132;DHT22;5620;53.570;9.718;2022-08-02T07:35:31;17.60;47.00
11132;DHT22;5620;53.570;9.718;2022-08-02T07:37:58;17.60;4.80
11132;DHT22;5620;53.570;9.718;2022-08-02T07:40:27;17.70;1.00
11132;DHT22;5620;53.570;9.718;2022-08-02T07:42:55;17.70;1.00
11132;DHT22;5620;53.570;9.718;2022-08-02T07:45:23;17.80;1.00
11132;DHT22;5620;53.570;9.718;2022-08-02T07:47:51;17.90;1.00
11132;DHT22;5620;53.570;9.718;2022-08-02T07:50:21;17.90;1.00
11132;DHT22;5620;53.570;9.718;2022-08-02T07:52:48;17.90;1.00
11132;DHT22;5620;53.570;9.718;2022-08-02T07:55:15;17.90;1.00
11132;DHT22;5620;53.570;9.718;2022-08-02T07:57:41;18.00;1.00
11132;DHT22;5620;53.570;9.718;2022-08-02T08:00:09;18.10;1.00
11132;DHT22;5620;53.570;9.718;2022-08-02T08:02:37;18.10;1.00
11132;DHT22;5620;53.570;9.718;2022-08-02T08:05:06;18.20;1.00
11132;DHT22;5620;53.570;9.718;2022-08-02T08:07:33;18.20;1.00
11132;DHT22;5620;53.570;9.718;2022-08-02T08:10:01;18.40;1.00
11132;DHT22;5620;53.570;9.718;2022-08-02T08:12:29;18.50;1.00
11132;DHT22;5620;53.570;9.718;2022-08-02T08:14:57;18.60;1.00
11132;DHT22;5620;53.570;9.718;2022-08-02T08:17:25;18.80;1.00
11132;DHT22;5620;53.570;9.718;2022-08-02T08:19:56;18.90;1.00
11132;DHT22;5620;53.570;9.718;2022-08-02T08:22:24;19.00;1.00
11132;DHT22;5620;53.570;9.718;2022-08-02T08:24:51;19.10;1.00
11132;DHT22;5620;53.570;9.718;2022-08-02T08:27:18;19.20;99.90
11132;DHT22;5620;53.570;9.718;2022-08-02T08:29:45;19.20;99.90
11132;DHT22;5620;53.570;9.718;2022-08-02T08:32:14;19.30;99.90
11132;DHT22;5620;53.570;9.718;2022-08-02T08:34:49;19.40;99.90
11132;DHT22;5620;53.570;9.718;2022-08-02T08:37:17;19.60;99.90
11132;DHT22;5620;53.570;9.718;2022-08-02T08:39:49;19.60;99.90
11132;DHT22;5620;53.570;9.718;2022-08-02T08:42:15;19.60;99.90
11132;DHT22;5620;53.570;9.718;2022-08-02T08:44:45;19.60;99.90
11132;DHT22;5620;53.570;9.718;2022-08-02T08:47:16;19.70;99.90
11132;DHT22;5620;53.570;9.718;2022-08-02T08:49:46;19.70;99.90
11132;DHT22;5620;53.570;9.718;2022-08-02T08:52:26;19.70;99.90
11132;DHT22;5620;53.570;9.718;2022-08-02T08:55:13;19.80;99.90
11132;DHT22;5620;53.570;9.718;2022-08-02T08:57:43;20.00;99.90
11132;DHT22;5620;53.570;9.718;2022-08-02T09:00:14;20.00;99.90
11132;DHT22;5620;53.570;9.718;2022-08-02T09:02:52;20.00;99.90
11132;DHT22;5620;53.570;9.718;2022-08-02T09:05:19;20.00;99.90
11132;DHT22;5620;53.570;9.718;2022-08-02T09:07:49;20.10;99.90
11132;DHT22;5620;53.570;9.718;2022-08-02T09:10:40;20.20;99.90
11132;DHT22;5620;53.570;9.718;2022-08-02T09:16:09;20.30;99.90
11132;DHT22;5620;53.570;9.718;2022-08-02T09:18:36;20.40;99.90
11132;DHT22;5620;53.570;9.718;2022-08-02T09:21:06;20.40;99.90
11132;DHT22;5620;53.570;9.718;2022-08-02T09:23:46;20.40;99.90
11132;DHT22;5620;53.570;9.718;2022-08-02T09:26:14;20.50;99.90
11132;DHT22;5620;53.570;9.718;2022-08-02T09:28:43;20.70;99.90
11132;DHT22;5620;53.570;9.718;2022-08-02T09:34:02;20.90;99.90
11132;DHT22;5620;53.570;9.718;2022-08-02T09:36:50;21.00;99.90
11132;DHT22;5620;53.570;9.718;2022-08-02T09:39:16;21.00;99.90
11132;DHT22;5620;53.570;9.718;2022-08-02T09:41:44;21.00;99.90
11132;DHT22;5620;53.570;9.718;2022-08-02T09:44:14;21.00;99.90
11132;DHT22;5620;53.570;9.718;2022-08-02T09:46:44;21.10;99.90
11132;DHT22;5620;53.570;9.718;2022-08-02T09:49:28;21.10;61.10
11132;DHT22;5620;53.570;9.718;2022-08-02T09:52:00;21.20;39.30
11132;DHT22;5620;53.570;9.718;2022-08-02T09:54:28;21.30;29.20
11132;DHT22;5620;53.570;9.718;2022-08-02T09:57:00;21.30;34.90
11132;DHT22;5620;53.570;9.718;2022-08-02T09:59:36;21.40;14.10
11132;DHT22;5620;53.570;9.718;2022-08-02T10:02:09;21.50;7.90
11132;DHT22;5620;53.570;9.718;2022-08-02T10:04:36;21.60;2.90
11132;DHT22;5620;53.570;9.718;2022-08-02T10:07:04;21.60;1.00
11132;DHT22;5620;53.570;9.718;2022-08-02T10:09:39;21.70;1.00
11132;DHT22;5620;53.570;9.718;2022-08-02T10:12:16;21.80;1.00
11132;DHT22;5620;53.570;9.718;2022-08-02T10:14:50;21.80;1.00
11132;DHT22;5620;53.570;9.718;2022-08-02T10:17:28;22.00;1.00
11132;DHT22;5620;53.570;9.718;2022-08-02T10:19:55;22.20;1.00
11132;DHT22;5620;53.570;9.718;2022-08-02T10:22:23;22.50;1.00
11132;DHT22;5620;53.570;9.718;2022-08-02T10:24:53;22.80;1.00
11132;DHT22;5620;53.570;9.718;2022-08-02T10:27:21;23.00;1.00
11132;DHT22;5620;53.570;9.718;2022-08-02T10:29:49;23.30;1.00
11132;DHT22;5620;53.570;9.718;2022-08-02T10:32:36;23.50;1.00
11132;DHT22;5620;53.570;9.718;2022-08-02T10:35:22;23.80;1.00
11132;DHT22;5620;53.570;9.718;2022-08-02T10:37:53;24.00;1.00
11132;DHT22;5620;53.570;9.718;2022-08-02T10:40:19;24.20;1.00
11132;DHT22;5620;53.570;9.718;2022-08-02T10:42:49;24.50;1.00
11132;DHT22;5620;53.570;9.718;2022-08-02T10:45:18;24.60;1.00
11132;DHT22;5620;53.570;9.718;2022-08-02T10:48:08;24.70;1.00
11132;DHT22;5620;53.570;9.718;2022-08-02T10:53:35;25.20;1.00
11132;DHT22;5620;53.570;9.718;2022-08-02T10:56:03;25.30;1.00
11132;DHT22;5620;53.570;9.718;2022-08-02T10:58:30;25.30;1.00
11132;DHT22;5620;53.570;9.718;2022-08-02T11:01:07;25.30;1.00
11132;DHT22;5620;53.570;9.718;2022-08-02T11:03:58;25.40;1.00
11132;DHT22;5620;53.570;9.718;2022-08-02T11:06:25;25.80;1.00
11132;DHT22;5620;53.570;9.718;2022-08-02T11:09:27;26.70;1.00
11132;DHT22;5620;53.570;9.718;2022-08-02T11:12:12;27.80;1.00
11132;DHT22;5620;53.570;9.718;2022-08-02T11:14:40;29.70;1.00
11132;DHT22;5620;53.570;9.718;2022-08-02T11:17:19;31.40;1.00
11132;DHT22;5620;53.570;9.718;2022-08-02T11:22:57;34.80;1.00
11132;DHT22;5620;53.570;9.718;2022-08-02T11:25:42;36.20;1.00
11132;DHT22;5620;53.570;9.718;2022-08-02T11:28:11;37.50;1.00
11132;DHT22;5620;53.570;9.718;2022-08-02T11:30:37;38.00;1.00
11132;DHT22;5620;53.570;9.718;2022-08-02T11:33:04;37.50;1.00
11132;DHT22;5620;53.570;9.718;2022-08-02T11:35:37;37.70;1.00
11132;DHT22;5620;53.570;9.718;2022-08-02T11:40:57;38.90;1.00
11132;DHT22;5620;53.570;9.718;2022-08-02T11:43:25;39.20;1.00
11132;DHT22;5620;53.570;9.718;2022-08-02T11:45:53;39.20;1.00
11132;DHT22;5620;53.570;9.718;2022-08-02T11:48:39;39.10;1.00
11132;DHT22;5620;53.570;9.718;2022-08-02T11:51:13;39.00;1.00
11132;DHT22;5620;53.570;9.718;2022-08-02T11:53:47;39.20;1.00
11132;DHT22;5620;53.570;9.718;2022-08-02T11:56:14;39.60;99.90
11132;DHT22;5620;53.570;9.718;2022-08-02T11:59:06;39.50;99.90
11132;DHT22;5620;53.570;9.718;2022-08-02T12:01:34;39.90;99.90
11132;DHT22;5620;53.570;9.718;2022-08-02T12:04:01;40.70;99.90
11132;DHT22;5620;53.570;9.718;2022-08-02T12:06:30;41.50;99.90
11132;DHT22;5620;53.570;9.718;2022-08-02T12:09:13;42.20;99.90
11132;DHT22;5620;53.570;9.718;2022-08-02T12:11:41;42.50;99.90
11132;DHT22;5620;53.570;9.718;2022-08-02T12:14:12;42.40;99.90
11132;DHT22;5620;53.570;9.718;2022-08-02T12:16:39;42.60;99.90
11132;DHT22;5620;53.570;9.718;2022-08-02T12:19:07;43.00;99.90
11132;DHT22;5620;53.570;9.718;2022-08-02T12:21:32;43.50;99.90
11132;DHT22;5620;53.570;9.718;2022-08-02T12:23:58;42.80;99.90
11132;DHT22;5620;53.570;9.718;2022-08-02T12:26:24;43.50;99.90
11132;DHT22;5620;53.570;9.718;2022-08-02T12:28:55;44.30;99.90
11132;DHT22;5620;53.570;9.718;2022-08-02T12:31:37;45.10;99.90
11132;DHT22;5620;53.570;9.718;2022-08-02T12:34:19;46.00;99.90
11132;DHT22;5620;53.570;9.718;2022-08-02T12:37:09;46.10;99.90
11132;DHT22;5620;53.570;9.718;2022-08-02T12:39:43;47.10;99.90
11132;DHT22;5620;53.570;9.718;2022-08-02T12:42:21;47.50;99.90
11132;DHT22;5620;53.570;9.718;2022-08-02T12:44:58;48.00;99.90
11132;DHT22;5620;53.570;9.718;2022-08-02T12:47:25;47.10;99.90
11132;DHT22;5620;53.570;9.718;2022-08-02T12:50:21;46.30;99.90
11132;DHT22;5620;53.570;9.718;2022-08-02T12:53:13;45.80;99.90
11132;DHT22;5620;53.570;9.718;2022-08-02T12:55:56;44.80;99.90
11132;DHT22;5620;53.570;9.718;2022-08-02T12:58:23;44.30;99.90
11132;DHT22;5620;53.570;9.718;2022-08-02T13:00:58;43.70;99.90
11132;DHT22;5620;53.570;9.718;2022-08-02T13:03:27;43.20;99.90
11132;DHT22;5620;53.570;9.718;2022-08-02T13:05:55;43.20;99.90
11132;DHT22;5620;53.570;9.718;2022-08-02T13:08:21;42.20;99.90
11132;DHT22;5620;53.570;9.718;2022-08-02T13:10:50;41.20;99.90
11132;DHT22;5620;53.570;9.718;2022-08-02T13:13:15;40.40;99.90
11132;DHT22;5620;53.570;9.718;2022-08-02T13:15:42;39.90;99.90
11132;DHT22;5620;53.570;9.718;2022-08-02T13:18:09;40.10;99.90
11132;DHT22;5620;53.570;9.718;2022-08-02T13:20:37;41.50;99.90
11132;DHT22;5620;53.570;9.718;2022-08-02T13:23:05;43.10;99.90
11132;DHT22;5620;53.570;9.718;2022-08-02T13:25:31;44.50;99.90
11132;DHT22;5620;53.570;9.718;2022-08-02T13:27:57;44.60;99.90
11132;DHT22;5620;53.570;9.718;2022-08-02T13:30:24;44.30;99.90
11132;DHT22;5620;53.570;9.718;2022-08-02T13:32:49;43.40;99.90
11132;DHT22;5620;53.570;9.718;2022-08-02T13:35:16;43.30;99.90
11132;DHT22;5620;53.570;9.718;2022-08-02T13:37:42;42.80;99.90
11132;DHT22;5620;53.570;9.718;2022-08-02T13:40:09;43.00;99.90
11132;DHT22;5620;53.570;9.718;2022-08-02T13:42:36;43.00;99.90
11132;DHT22;5620;53.570;9.718;2022-08-02T13:45:03;43.10;99.90
11132;DHT22;5620;53.570;9.718;2022-08-02T13:47:29;43.00;99.90
11132;DHT22;5620;53.570;9.718;2022-08-02T13:49:57;42.70;99.90
11132;DHT22;5620;53.570;9.718;2022-08-02T13:52:22;42.40;99.90
11132;DHT22;5620;53.570;9.718;2022-08-02T13:54:49;41.80;99.90
11132;DHT22;5620;53.570;9.718;2022-08-02T13:57:16;41.30;99.90
11132;DHT22;5620;53.570;9.718;2022-08-02T13:59:43;41.30;99.90
11132;DHT22;5620;53.570;9.718;2022-08-02T14:02:10;40.90;99.90
11132;DHT22;5620;53.570;9.718;2022-08-02T14:04:35;40.70;99.90
11132;DHT22;5620;53.570;9.718;2022-08-02T14:07:03;40.90;99.90
11132;DHT22;5620;53.570;9.718;2022-08-02T14:09:29;41.20;99.90
11132;DHT22;5620;53.570;9.718;2022-08-02T14:11:56;42.00;99.90
11132;DHT22;5620;53.570;9.718;2022-08-02T14:14:22;42.30;99.90
11132;DHT22;5620;53.570;9.718;2022-08-02T14:16:52;41.20;99.90
11132;DHT22;5620;53.570;9.718;2022-08-02T14:19:18;40.00;99.90
11132;DHT22;5620;53.570;9.718;2022-08-02T14:21:44;39.80;99.90
11132;DHT22;5620;53.570;9.718;2022-08-02T14:24:10;40.00;99.90
11132;DHT22;5620;53.570;9.718;2022-08-02T14:26:36;40.20;99.90
11132;DHT22;5620;53.570;9.718;2022-08-02T14:29:03;40.10;99.90
11132;DHT22;5620;53.570;9.718;2022-08-02T14:31:31;39.30;99.90
11132;DHT22;5620;53.570;9.718;2022-08-02T14:33:58;38.80;99.90
11132;DHT22;5620;53.570;9.718;2022-08-02T14:36:26;38.90;99.90
11132;DHT22;5620;53.570;9.718;2022-08-02T14:38:52;38.90;99.90
11132;DHT22;5620;53.570;9.718;2022-08-02T14:41:19;39.00;99.90
11132;DHT22;5620;53.570;9.718;2022-08-02T14:43:44;39.20;99.90
11132;DHT22;5620;53.570;9.718;2022-08-02T14:46:12;40.20;99.90
11132;DHT22;5620;53.570;9.718;2022-08-02T14:48:41;41.20;99.90
11132;DHT22;5620;53.570;9.718;2022-08-02T14:51:08;41.80;99.90
11132;DHT22;5620;53.570;9.718;2022-08-02T14:53:40;41.80;99.90
11132;DHT22;5620;53.570;9.718;2022-08-02T14:56:06;41.50;99.90
11132;DHT22;5620;53.570;9.718;2022-08-02T14:58:32;40.50;99.90
11132;DHT22;5620;53.570;9.718;2022-08-02T15:00:59;40.20;99.90
11132;DHT22;5620;53.570;9.718;2022-08-02T15:03:29;40.50;99.90
11132;DHT22;5620;53.570;9.718;2022-08-02T15:05:55;40.70;99.90
11132;DHT22;5620;53.570;9.718;2022-08-02T15:08:22;40.70;99.90
11132;DHT22;5620;53.570;9.718;2022-08-02T15:10:48;41.60;99.90
11132;DHT22;5620;53.570;9.718;2022-08-02T15:13:15;43.00;99.90
11132;DHT22;5620;53.570;9.718;2022-08-02T15:15:41;43.60;99.90
11132;DHT22;5620;53.570;9.718;2022-08-02T15:18:10;43.70;99.90
11132;DHT22;5620;53.570;9.718;2022-08-02T15:20:38;43.40;99.90
11132;DHT22;5620;53.570;9.718;2022-08-02T15:23:05;43.10;99.90
11132;DHT22;5620;53.570;9.718;2022-08-02T15:25:31;44.10;99.90
11132;DHT22;5620;53.570;9.718;2022-08-02T15:27:57;46.20;99.90
11132;DHT22;5620;53.570;9.718;2022-08-02T15:30:23;46.90;99.90
11132;DHT22;5620;53.570;9.718;2022-08-02T15:32:49;46.00;99.90
11132;DHT22;5620;53.570;9.718;2022-08-02T15:35:17;47.10;99.90
11132;DHT22;5620;53.570;9.718;2022-08-02T15:37:45;47.00;99.90
11132;DHT22;5620;53.570;9.718;2022-08-02T15:40:12;44.80;99.90
11132;DHT22;5620;53.570;9.718;2022-08-02T15:42:40;42.60;99.90
11132;DHT22;5620;53.570;9.718;2022-08-02T15:45:06;40.90;99.90
11132;DHT22;5620;53.570;9.718;2022-08-02T15:47:33;39.40;1.00
11132;DHT22;5620;53.570;9.718;2022-08-02T15:49:59;38.30;1.00
11132;DHT22;5620;53.570;9.718;2022-08-02T15:52:25;37.20;1.00
11132;DHT22;5620;53.570;9.718;2022-08-02T15:54:53;36.30;1.00
11132;DHT22;5620;53.570;9.718;2022-08-02T15:57:20;35.40;1.00
11132;DHT22;5620;53.570;9.718;2022-08-02T15:59:47;34.70;1.00
11132;DHT22;5620;53.570;9.718;2022-08-02T16:02:14;34.20;1.00
11132;DHT22;5620;53.570;9.718;2022-08-02T16:04:41;33.80;1.00
11132;DHT22;5620;53.570;9.718;2022-08-02T16:07:08;33.30;1.00
11132;DHT22;5620;53.570;9.718;2022-08-02T16:09:37;32.60;1.00
11132;DHT22;5620;53.570;9.718;2022-08-02T16:12:04;32.20;1.00
11132;DHT22;5620;53.570;9.718;2022-08-02T16:14:32;32.40;1.00
11132;DHT22;5620;53.570;9.718;2022-08-02T16:16:58;33.40;1.00
11132;DHT22;5620;53.570;9.718;2022-08-02T16:19:24;33.90;1.00
11132;DHT22;5620;53.570;9.718;2022-08-02T16:21:50;34.10;1.00
11132;DHT22;5620;53.570;9.718;2022-08-02T16:24:17;33.70;1.00
11132;DHT22;5620;53.570;9.718;2022-08-02T16:26:44;33.10;1.00
11132;DHT22;5620;53.570;9.718;2022-08-02T16:29:11;32.70;1.00
11132;DHT22;5620;53.570;9.718;2022-08-02T16:31:39;32.30;1.00
11132;DHT22;5620;53.570;9.718;2022-08-02T16:34:05;31.80;1.00
11132;DHT22;5620;53.570;9.718;2022-08-02T16:36:31;31.30;1.00